createdAt,value
2023-04-19T00:01:49.390Z,5.65
2023-04-19T00:04:16.892Z,4.18
2023-04-19T00:06:44.648Z,9.00
2023-04-19T00:09:11.686Z,4.40
2023-04-19T00:11:38.740Z,6.85
2023-04-19T00:14:05.653Z,7.90
2023-04-19T00:16:32.695Z,8.30
2023-04-19T00:18:59.797Z,11.65
2023-04-19T00:21:27.282Z,6.45
2023-04-19T00:23:54.269Z,4.25
2023-04-19T00:26:21.509Z,6.20
2023-04-19T00:28:52.781Z,5.45
2023-04-19T00:31:23.147Z,5.05
2023-04-19T00:33:50.520Z,7.78
2023-04-19T00:36:19.196Z,4.68
2023-04-19T00:38:48.101Z,4.55
2023-04-19T00:41:16.424Z,3.13
2023-04-19T00:43:43.452Z,2.60
2023-04-19T00:46:10.701Z,2.95
2023-04-19T00:48:38.985Z,4.85
2023-04-19T00:51:06.732Z,4.57
2023-04-19T00:53:34.357Z,3.65
2023-04-19T00:56:04.754Z,3.25
2023-04-19T00:58:32.319Z,3.70
2023-04-19T01:01:00.095Z,4.57
2023-04-19T01:03:27.837Z,2.58
2023-04-19T01:05:56.764Z,4.45
2023-04-19T01:08:24.151Z,4.03
2023-04-19T01:10:54.593Z,4.32
2023-04-19T01:13:21.907Z,4.85
2023-04-19T01:15:49.110Z,5.30
2023-04-19T01:18:16.198Z,3.88
2023-04-19T01:20:43.513Z,4.50
2023-04-19T01:23:11.992Z,6.07
2023-04-19T01:25:39.227Z,7.80
2023-04-19T01:28:06.491Z,5.63
2023-04-19T01:30:34.632Z,8.25
2023-04-19T01:33:01.911Z,5.85
2023-04-19T01:35:29.964Z,7.78
2023-04-19T01:37:56.916Z,6.25
2023-04-19T01:40:25.611Z,7.10
2023-04-19T01:42:53.026Z,7.75
2023-04-19T01:45:20.820Z,4.97
2023-04-19T01:47:51.689Z,5.80
2023-04-19T01:50:18.962Z,6.22
2023-04-19T01:52:46.016Z,4.20
2023-04-19T01:55:13.181Z,5.22
2023-04-19T01:57:40.291Z,5.40
2023-04-19T02:00:08.939Z,6.63
2023-04-19T02:02:42.157Z,4.60
2023-04-19T02:05:10.177Z,5.10
2023-04-19T02:07:37.622Z,5.95
2023-04-19T02:10:06.127Z,6.47
2023-04-19T02:12:34.629Z,6.37
2023-04-19T02:15:04.532Z,6.85
2023-04-19T02:17:34.363Z,6.65
2023-04-19T02:20:01.574Z,6.30
2023-04-19T02:22:32.239Z,7.55
2023-04-19T02:24:59.246Z,7.35
2023-04-19T02:27:32.075Z,6.53
2023-04-19T02:29:59.928Z,5.70
2023-04-19T02:32:27.155Z,6.25
2023-04-19T02:34:54.194Z,8.15
2023-04-19T02:37:21.055Z,9.52
2023-04-19T02:39:48.912Z,6.57
2023-04-19T02:42:15.925Z,7.65
2023-04-19T02:44:43.103Z,6.60
2023-04-19T02:47:10.240Z,8.45
2023-04-19T02:49:41.448Z,7.03
2023-04-19T02:52:09.918Z,9.85
2023-04-19T02:57:06.163Z,8.60
2023-04-19T02:59:33.229Z,7.28
2023-04-19T03:02:04.279Z,7.85
2023-04-19T03:04:31.447Z,7.53
2023-04-19T03:06:58.810Z,7.40
2023-04-19T03:09:26.552Z,8.45
2023-04-19T03:11:53.647Z,6.05
2023-04-19T03:14:20.918Z,9.82
2023-04-19T03:16:47.884Z,7.85
2023-04-19T03:19:15.433Z,8.52
2023-04-19T03:21:48.570Z,7.20
2023-04-19T03:24:18.849Z,7.63
2023-04-19T03:26:50.072Z,8.65
2023-04-19T03:29:22.412Z,9.88
2023-04-19T03:31:57.695Z,9.65
2023-04-19T03:34:24.780Z,8.73
2023-04-19T03:36:51.703Z,8.07
2023-04-19T03:39:19.462Z,7.88
2023-04-19T03:41:50.396Z,8.63
2023-04-19T03:44:36.552Z,7.70
2023-04-19T03:47:05.803Z,9.77
2023-04-19T03:49:39.977Z,9.38
2023-04-19T03:52:07.257Z,9.38
2023-04-19T03:54:34.996Z,9.30
2023-04-19T03:57:04.549Z,8.98
2023-04-19T03:59:32.274Z,7.20
2023-04-19T04:01:59.889Z,9.43
2023-04-19T04:04:27.071Z,7.15
2023-04-19T04:06:55.792Z,9.05
2023-04-19T04:09:23.075Z,8.35
2023-04-19T04:11:51.010Z,8.55
2023-04-19T04:14:18.151Z,10.52
2023-04-19T04:16:46.986Z,7.18
2023-04-19T04:19:16.226Z,7.55
2023-04-19T04:21:43.497Z,8.45
2023-04-19T04:24:11.534Z,8.85
2023-04-19T04:27:03.266Z,10.90
2023-04-19T04:29:33.466Z,7.85
2023-04-19T04:32:06.247Z,10.85
2023-04-19T04:34:39.652Z,9.43
2023-04-19T04:37:11.826Z,9.25
2023-04-19T04:39:39.894Z,8.93
2023-04-19T04:42:09.210Z,8.95
2023-04-19T04:44:36.921Z,9.60
2023-04-19T04:47:03.853Z,9.02
2023-04-19T04:49:36.500Z,10.55
2023-04-19T04:52:04.171Z,9.57
2023-04-19T04:54:36.413Z,8.65
2023-04-19T04:57:05.084Z,10.50
2023-04-19T04:59:32.254Z,9.80
2023-04-19T05:01:59.402Z,12.73
2023-04-19T05:04:26.708Z,10.68
2023-04-19T05:06:53.883Z,10.13
2023-04-19T05:09:25.490Z,9.23
2023-04-19T05:11:52.812Z,12.60
2023-04-19T05:14:19.885Z,9.88
2023-04-19T05:16:47.084Z,9.80
2023-04-19T05:19:14.202Z,10.57
2023-04-19T05:21:48.318Z,9.88
2023-04-19T05:24:16.432Z,11.07
2023-04-19T05:26:44.435Z,10.15
2023-04-19T05:29:12.074Z,11.38
2023-04-19T05:31:46.786Z,8.88
2023-04-19T05:34:22.375Z,11.43
2023-04-19T05:36:50.338Z,12.25
2023-04-19T05:39:17.383Z,12.38
2023-04-19T05:41:44.495Z,11.73
2023-04-19T05:44:11.412Z,9.52
2023-04-19T05:46:39.328Z,11.70
2023-04-19T05:49:09.026Z,9.95
2023-04-19T05:52:09.485Z,11.05
2023-04-19T05:54:45.475Z,11.50
2023-04-19T05:57:13.253Z,12.80
2023-04-19T05:59:40.334Z,10.70
2023-04-19T06:02:07.882Z,11.68
2023-04-19T06:04:34.962Z,12.45
2023-04-19T06:07:04.660Z,12.27
2023-04-19T06:09:33.866Z,12.00
2023-04-19T06:12:02.051Z,9.07
2023-04-19T06:14:29.771Z,15.65
2023-04-19T06:16:57.557Z,9.68
2023-04-19T06:19:25.969Z,11.32
2023-04-19T06:21:53.032Z,11.07
2023-04-19T06:24:20.127Z,10.88
2023-04-19T06:26:48.415Z,12.00
2023-04-19T06:29:15.538Z,10.63
2023-04-19T06:31:42.977Z,9.85
2023-04-19T06:34:11.168Z,10.85
2023-04-19T06:36:38.311Z,9.45
2023-04-19T06:39:05.447Z,10.93
2023-04-19T06:41:32.373Z,9.30
2023-04-19T06:43:59.703Z,9.60
2023-04-19T06:46:27.783Z,8.45
2023-04-19T06:48:56.294Z,9.35
2023-04-19T06:51:23.451Z,9.32
2023-04-19T06:53:51.274Z,8.85
2023-04-19T06:56:18.518Z,7.88
2023-04-19T06:58:45.467Z,10.68
2023-04-19T07:01:13.151Z,8.32
2023-04-19T07:03:40.401Z,12.05
2023-04-19T07:06:07.892Z,8.98
2023-04-19T07:08:48.877Z,10.25
2023-04-19T07:11:16.606Z,9.88
2023-04-19T07:13:43.719Z,10.52
2023-04-19T07:16:10.862Z,10.45
2023-04-19T07:18:37.912Z,9.77
2023-04-19T07:21:04.852Z,11.07
2023-04-19T07:23:31.960Z,10.32
2023-04-19T07:25:58.860Z,12.52
2023-04-19T07:28:26.087Z,8.23
2023-04-19T07:30:52.991Z,9.57
2023-04-19T07:33:20.280Z,8.77
2023-04-19T07:35:47.669Z,8.70
2023-04-19T07:38:14.563Z,8.80
2023-04-19T07:40:42.697Z,10.38
2023-04-19T07:43:09.719Z,10.45
2023-04-19T07:45:36.658Z,8.23
2023-04-19T07:48:03.850Z,10.43
2023-04-19T07:50:30.868Z,8.27
2023-04-19T07:52:58.055Z,9.27
2023-04-19T07:55:25.042Z,10.52
2023-04-19T07:57:52.299Z,9.98
2023-04-19T08:00:21.654Z,7.40
2023-04-19T08:05:21.134Z,16.90
2023-04-19T08:11:47.681Z,7.80
2023-04-19T08:14:30.603Z,9.63
2023-04-19T08:17:24.314Z,10.45
2023-04-19T08:19:54.314Z,8.95
2023-04-19T08:22:21.626Z,9.35
2023-04-19T08:24:52.212Z,7.50
2023-04-19T08:27:20.141Z,8.40
2023-04-19T08:29:47.227Z,8.60
2023-04-19T08:32:14.210Z,7.78
2023-04-19T08:34:41.293Z,7.43
2023-04-19T08:37:08.420Z,9.43
2023-04-19T08:39:35.859Z,7.95
2023-04-19T08:42:17.702Z,7.50
2023-04-19T08:45:23.387Z,6.72
2023-04-19T08:47:58.642Z,7.82
2023-04-19T08:53:12.276Z,7.95
2023-04-19T08:56:07.835Z,6.38
2023-04-19T08:58:56.922Z,7.55
2023-04-19T09:01:34.883Z,8.07
2023-04-19T09:04:26.385Z,8.43
2023-04-19T09:06:55.970Z,8.75
2023-04-19T09:09:37.202Z,12.43
2023-04-19T09:12:18.148Z,8.82
2023-04-19T09:15:00.571Z,5.90
2023-04-19T09:17:34.003Z,5.63
2023-04-19T09:20:00.993Z,7.15
2023-04-19T09:22:28.027Z,7.82
2023-04-19T09:27:36.475Z,7.55
2023-04-19T09:30:05.109Z,5.38
2023-04-19T09:32:49.051Z,5.35
2023-04-19T09:35:16.902Z,6.75
2023-04-19T09:38:05.866Z,6.85
2023-04-19T09:40:34.265Z,9.13
2023-04-19T09:43:23.079Z,8.27
2023-04-19T09:45:52.657Z,4.95
2023-04-19T09:48:19.850Z,4.78
2023-04-19T09:51:00.900Z,4.95
2023-04-19T09:53:35.451Z,8.38
2023-04-19T09:56:04.312Z,4.60
2023-04-19T09:58:42.536Z,5.05
2023-04-19T10:01:20.121Z,5.53
2023-04-19T10:03:50.882Z,6.85
2023-04-19T10:08:52.629Z,5.25
2023-04-19T10:11:22.705Z,5.70
2023-04-19T10:13:54.572Z,4.70
2023-04-19T10:16:21.921Z,5.60
2023-04-19T10:18:50.626Z,5.88
2023-04-19T10:21:20.054Z,7.32
2023-04-19T10:23:48.226Z,6.63
2023-04-19T10:26:15.353Z,5.95
2023-04-19T10:28:43.839Z,7.03
2023-04-19T10:31:14.460Z,5.60
2023-04-19T10:33:42.146Z,5.32
2023-04-19T10:36:11.248Z,4.22
2023-04-19T10:41:13.595Z,4.82
2023-04-19T10:43:58.191Z,3.95
2023-04-19T10:46:26.147Z,5.47
2023-04-19T10:49:01.793Z,5.03
2023-04-19T10:51:35.794Z,5.53
2023-04-19T10:54:35.873Z,6.07
2023-04-19T10:57:11.194Z,4.88
2023-04-19T10:59:40.370Z,5.20
2023-04-19T11:02:22.444Z,6.10
2023-04-19T11:04:52.424Z,6.00
2023-04-19T11:07:21.483Z,7.60
2023-04-19T11:09:49.795Z,6.05
2023-04-19T11:12:21.501Z,7.47
2023-04-19T11:14:59.714Z,6.15
2023-04-19T11:17:32.036Z,4.93
2023-04-19T11:19:59.189Z,5.70
2023-04-19T11:22:37.447Z,5.47
2023-04-19T11:25:09.012Z,6.50
2023-04-19T11:27:37.636Z,7.82
2023-04-19T11:30:10.314Z,5.03
2023-04-19T11:32:38.281Z,7.57
2023-04-19T11:35:09.810Z,5.30
2023-04-19T11:37:38.093Z,4.93
2023-04-19T11:40:06.953Z,4.15
2023-04-19T11:42:34.092Z,3.90
2023-04-19T11:45:01.307Z,3.15
2023-04-19T11:47:28.523Z,5.03
2023-04-19T11:49:56.471Z,4.75
2023-04-19T11:52:25.867Z,7.75
2023-04-19T11:54:53.968Z,4.30
2023-04-19T11:57:31.690Z,6.60
2023-04-19T12:00:06.801Z,4.03
2023-04-19T12:02:44.520Z,6.05
2023-04-19T12:05:14.310Z,4.53
2023-04-19T12:08:03.343Z,3.65
2023-04-19T12:10:32.525Z,4.05
2023-04-19T12:12:59.808Z,4.75
2023-04-19T12:15:43.765Z,6.32
2023-04-19T12:18:11.171Z,3.67
2023-04-19T12:20:44.001Z,3.70
2023-04-19T12:23:13.926Z,3.13
2023-04-19T12:25:42.240Z,5.80
2023-04-19T12:28:09.569Z,4.15
2023-04-19T12:30:37.199Z,4.18
2023-04-19T12:33:04.964Z,5.68
2023-04-19T12:35:32.090Z,3.72
2023-04-19T12:38:00.098Z,3.08
2023-04-19T12:40:27.695Z,3.45
2023-04-19T12:42:55.049Z,7.13
2023-04-19T12:45:22.204Z,5.15
2023-04-19T12:47:49.445Z,6.32
2023-04-19T12:50:16.533Z,5.68
2023-04-19T12:52:46.236Z,6.00
2023-04-19T12:55:13.445Z,7.38
2023-04-19T12:57:40.540Z,9.88
2023-04-19T13:00:10.488Z,11.55
2023-04-19T13:02:39.749Z,10.38
2023-04-19T13:05:09.785Z,9.93
2023-04-19T13:07:37.260Z,5.97
2023-04-19T13:10:04.716Z,4.43
2023-04-19T13:12:31.826Z,3.88
2023-04-19T13:14:58.844Z,4.25
2023-04-19T13:17:25.800Z,3.38
2023-04-19T13:19:52.764Z,4.05
2023-04-19T13:22:19.992Z,2.58
2023-04-19T13:24:47.248Z,6.05
2023-04-19T13:27:14.284Z,4.15
2023-04-19T13:29:41.339Z,4.88
2023-04-19T13:32:12.462Z,6.30
2023-04-19T13:34:40.554Z,4.95
2023-04-19T13:37:08.430Z,4.78
2023-04-19T13:39:35.484Z,6.78
2023-04-19T13:42:02.427Z,4.63
2023-04-19T13:44:29.518Z,8.38
2023-04-19T13:46:56.921Z,5.57
2023-04-19T13:49:25.089Z,4.60
2023-04-19T13:51:52.152Z,6.18
2023-04-19T13:54:20.012Z,7.15
2023-04-19T13:56:49.796Z,6.07
2023-04-19T13:59:18.833Z,5.75
2023-04-19T14:01:45.951Z,6.32
2023-04-19T14:04:13.151Z,4.43
2023-04-19T14:06:40.360Z,5.43
2023-04-19T14:09:25.918Z,6.68
2023-04-19T14:11:53.855Z,4.30
2023-04-19T14:14:21.035Z,4.97
2023-04-19T14:16:51.077Z,4.70
2023-04-19T14:19:22.683Z,6.32
2023-04-19T14:21:50.158Z,4.88
2023-04-19T14:24:17.829Z,5.60
2023-04-19T14:26:45.274Z,7.07
2023-04-19T14:29:12.188Z,5.43
2023-04-19T14:31:39.378Z,6.10
2023-04-19T14:34:06.876Z,7.32
2023-04-19T14:36:33.922Z,4.70
2023-04-19T14:39:02.958Z,5.28
2023-04-19T14:41:30.346Z,8.10
2023-04-19T14:43:57.760Z,7.07
2023-04-19T14:46:24.895Z,5.50
2023-04-19T14:48:51.963Z,3.88
2023-04-19T14:51:18.842Z,7.28
2023-04-19T14:53:45.996Z,9.15
2023-04-19T14:56:14.070Z,3.92
2023-04-19T14:58:41.256Z,7.18
2023-04-19T15:01:15.685Z,6.15
2023-04-19T15:03:43.433Z,5.07
2023-04-19T15:06:10.931Z,5.72
2023-04-19T15:08:39.126Z,4.15
2023-04-19T15:11:06.076Z,5.45
2023-04-19T15:13:33.986Z,3.88
2023-04-19T15:16:03.347Z,6.22
2023-04-19T15:18:30.752Z,7.47
2023-04-19T15:20:57.886Z,5.35
2023-04-19T15:23:26.590Z,7.20
2023-04-19T15:25:53.528Z,6.32
2023-04-19T15:29:47.732Z,7.32
2023-04-19T15:32:50.709Z,9.60
2023-04-19T15:35:17.727Z,9.77
2023-04-19T15:37:48.333Z,9.52
2023-04-19T15:40:17.121Z,6.90
2023-04-19T15:42:44.285Z,8.13
2023-04-19T15:45:11.265Z,9.07
2023-04-19T15:47:39.458Z,6.57
2023-04-19T15:50:06.904Z,5.75
2023-04-19T15:52:34.261Z,8.23
2023-04-19T15:55:01.243Z,6.57
2023-04-19T15:57:28.919Z,7.40
2023-04-19T15:59:58.891Z,6.00
2023-04-19T16:02:26.242Z,6.97
2023-04-19T16:04:53.742Z,7.53
2023-04-19T16:07:21.124Z,5.70
2023-04-19T16:09:48.098Z,6.00
2023-04-19T16:12:15.063Z,4.68
2023-04-19T16:14:41.998Z,6.72
2023-04-19T16:17:09.003Z,5.75
2023-04-19T16:19:35.860Z,7.30
2023-04-19T16:22:05.386Z,8.93
2023-04-19T16:24:32.576Z,8.90
2023-04-19T16:26:59.662Z,10.07
2023-04-19T16:29:27.205Z,9.38
2023-04-19T16:31:54.469Z,11.43
2023-04-19T16:34:23.949Z,8.50
2023-04-19T16:36:54.421Z,9.75
2023-04-19T16:39:21.704Z,9.70
2023-04-19T16:41:49.093Z,9.65
2023-04-19T16:44:16.441Z,9.88
2023-04-19T16:46:43.540Z,12.85
2023-04-19T16:49:10.901Z,11.65
2023-04-19T16:51:37.944Z,11.95
2023-04-19T16:54:05.243Z,10.73
2023-04-19T16:56:32.152Z,11.38
2023-04-19T16:58:59.285Z,13.30
2023-04-19T17:01:26.388Z,13.75
2023-04-19T17:03:53.641Z,12.30
2023-04-19T17:06:21.794Z,12.45
2023-04-19T17:08:48.876Z,18.70
2023-04-19T17:11:15.874Z,12.90
2023-04-19T17:13:43.203Z,13.52
2023-04-19T17:16:13.385Z,14.27
2023-04-19T17:18:40.568Z,14.23
2023-04-19T17:21:07.691Z,15.05
2023-04-19T17:23:34.573Z,14.15
2023-04-19T17:26:01.779Z,14.48
2023-04-19T17:28:28.696Z,17.05
2023-04-19T17:30:56.038Z,19.33
2023-04-19T17:33:23.095Z,16.48
2023-04-19T17:35:51.275Z,19.15
2023-04-19T17:38:18.172Z,28.10
2023-04-19T17:40:45.239Z,20.17
2023-04-19T17:43:12.316Z,23.05
2023-04-19T17:45:39.241Z,17.30
2023-04-19T17:48:06.667Z,20.15
2023-04-19T17:50:33.709Z,17.17
2023-04-19T17:53:00.705Z,19.90
2023-04-19T17:55:27.780Z,19.15
2023-04-19T17:57:54.688Z,20.30
2023-04-19T18:00:21.836Z,17.75
2023-04-19T18:02:49.396Z,18.10
2023-04-19T18:05:17.048Z,17.10
2023-04-19T18:07:44.455Z,18.48
2023-04-19T18:10:11.569Z,18.58
2023-04-19T18:12:38.691Z,19.92
2023-04-19T18:15:06.390Z,17.60
2023-04-19T18:17:33.669Z,17.15
2023-04-19T18:20:02.157Z,16.73
2023-04-19T18:22:31.372Z,18.55
2023-04-19T18:24:58.470Z,18.83
2023-04-19T18:27:26.280Z,16.23
2023-04-19T18:29:53.409Z,17.73
2023-04-19T18:32:22.741Z,23.30
2023-04-19T18:34:49.845Z,18.23
2023-04-19T18:37:17.414Z,18.70
2023-04-19T18:39:45.012Z,16.88
2023-04-19T18:42:12.448Z,16.30
2023-04-19T18:44:52.867Z,17.20
2023-04-19T18:47:21.747Z,18.60
2023-04-19T18:50:02.782Z,18.55
2023-04-19T18:52:33.111Z,16.58
2023-04-19T18:55:00.819Z,16.33
2023-04-19T18:57:47.490Z,18.33
2023-04-19T19:00:16.373Z,19.73
2023-04-19T19:02:44.678Z,18.63
2023-04-19T19:05:13.809Z,17.75
2023-04-19T19:07:42.065Z,15.93
2023-04-19T19:10:19.451Z,41.78
2023-04-19T19:12:49.257Z,21.90
2023-04-19T19:15:16.783Z,20.40
2023-04-19T19:17:49.440Z,18.98
2023-04-19T19:20:18.736Z,20.00
2023-04-19T19:22:46.329Z,20.15
2023-04-19T19:25:13.509Z,19.20
2023-04-19T19:27:40.876Z,19.45
2023-04-19T19:30:08.388Z,21.98
2023-04-19T19:32:35.529Z,18.77
2023-04-19T19:35:06.258Z,24.05
2023-04-19T19:37:36.967Z,21.95
2023-04-19T19:40:11.017Z,23.85
2023-04-19T19:42:41.338Z,21.50
2023-04-19T19:45:09.339Z,18.13
2023-04-19T19:47:43.144Z,18.15
2023-04-19T19:51:01.131Z,18.35
2023-04-19T19:53:01.505Z,21.67
2023-04-19T19:55:28.943Z,23.77
2023-04-19T20:02:56.950Z,25.05
2023-04-19T20:05:24.682Z,34.10
2023-04-19T20:10:22.150Z,37.28
2023-04-19T20:12:49.294Z,40.50
2023-04-19T20:15:16.647Z,44.22
2023-04-19T20:17:44.220Z,41.30
2023-04-19T20:20:11.764Z,39.30
2023-04-19T20:22:38.984Z,38.15
2023-04-19T20:25:06.617Z,46.03
2023-04-19T20:27:33.842Z,42.10
2023-04-19T20:30:00.989Z,25.33
2023-04-19T20:32:31.828Z,29.23
2023-04-19T20:35:00.250Z,29.92
2023-04-19T20:37:27.605Z,33.25
2023-04-19T20:39:57.852Z,25.52
2023-04-19T20:42:25.316Z,19.92
2023-04-19T20:44:52.266Z,21.48
2023-04-19T20:47:19.964Z,20.63
2023-04-19T20:49:47.051Z,19.23
2023-04-19T20:52:13.997Z,20.50
2023-04-19T20:54:41.210Z,24.27
2023-04-19T20:57:08.128Z,20.85
2023-04-19T20:59:35.266Z,16.88
2023-04-19T21:02:03.675Z,16.45
2023-04-19T21:04:31.176Z,17.38
2023-04-19T21:07:00.441Z,17.55
2023-04-19T21:09:31.912Z,15.27
2023-04-19T21:11:59.241Z,16.42
2023-04-19T21:14:26.172Z,15.82
2023-04-19T21:16:53.138Z,14.93
2023-04-19T21:19:20.915Z,16.38
2023-04-19T21:21:47.989Z,14.13
2023-04-19T21:24:15.156Z,14.60
2023-04-19T21:26:42.576Z,14.18
2023-04-19T21:29:09.670Z,14.27
2023-04-19T21:31:36.588Z,15.88
2023-04-19T21:34:03.764Z,15.43
2023-04-19T21:36:31.660Z,15.45
2023-04-19T21:38:58.863Z,15.90
2023-04-19T21:41:26.349Z,18.20
2023-04-19T21:43:53.301Z,14.15
2023-04-19T21:46:20.332Z,14.25
2023-04-19T21:48:47.369Z,14.00
2023-04-19T21:51:15.164Z,14.55
2023-04-19T21:53:42.423Z,16.73
2023-04-19T21:56:09.554Z,16.88
2023-04-19T21:58:36.857Z,15.95
2023-04-19T22:01:04.087Z,16.10
2023-04-19T22:03:32.158Z,14.18
2023-04-19T22:06:02.203Z,15.38
2023-04-19T22:08:32.135Z,13.30
2023-04-19T22:11:01.199Z,13.40
2023-04-19T22:13:28.513Z,16.55
2023-04-19T22:15:57.227Z,14.77
2023-04-19T22:18:24.422Z,14.85
2023-04-19T22:20:52.193Z,14.25
2023-04-19T22:23:19.489Z,13.25
2023-04-19T22:25:46.405Z,13.30
2023-04-19T22:28:13.478Z,12.93
2023-04-19T22:30:40.356Z,12.38
2023-04-19T22:33:07.583Z,13.98
2023-04-19T22:35:34.529Z,12.00
2023-04-19T22:38:01.636Z,12.93
2023-04-19T22:40:28.657Z,14.68
2023-04-19T22:42:55.918Z,15.45
2023-04-19T22:45:22.797Z,13.38
2023-04-19T22:47:49.985Z,15.10
2023-04-19T22:50:17.146Z,12.18
2023-04-19T22:52:44.648Z,15.68
2023-04-19T22:55:11.986Z,13.38
2023-04-19T22:57:39.150Z,16.08
2023-04-19T23:00:07.132Z,15.35
2023-04-19T23:02:34.354Z,13.45
2023-04-19T23:05:02.166Z,13.98
2023-04-19T23:07:30.746Z,13.60
2023-04-19T23:09:57.754Z,14.88
2023-04-19T23:12:24.895Z,15.35
2023-04-19T23:14:51.949Z,15.48
2023-04-19T23:17:20.004Z,14.85
2023-04-19T23:19:48.202Z,16.00
2023-04-19T23:22:15.121Z,14.95
2023-04-19T23:24:42.287Z,17.00
2023-04-19T23:27:09.313Z,17.08
2023-04-19T23:29:36.611Z,16.30
2023-04-19T23:32:03.634Z,18.42
2023-04-19T23:34:31.027Z,18.02
2023-04-19T23:36:58.068Z,15.02
2023-04-19T23:39:25.079Z,17.65
2023-04-19T23:41:52.129Z,13.48
2023-04-19T23:44:19.347Z,12.63
2023-04-19T23:46:46.510Z,14.45
2023-04-19T23:49:13.475Z,14.93
2023-04-19T23:51:40.737Z,13.27
2023-04-19T23:54:07.661Z,13.90
2023-04-19T23:56:34.656Z,11.57
2023-04-19T23:59:01.728Z,13.35
